»·PEaware :: AAL243 KDFW-KLGA

AAL243 :: KDFW-KLGA

FLIGHT INFORMATION

Flight Status: Arrived
Operator:
American Airlines
More flights by this operator :: More flights under this callsign
Pilot: Tatianna C. (7783)
Aircraft: AIRBUS A320
(A320)
More flights by this aircraft type
Origin: KDFW Dallas-Ft Worth Intl
United States
Destination: KLGA La Guardia
United States
More flights between these airports :: More routes between these airports
Route: TRYTN2 LOOSE MEM J42 GVE KORRY4
File this flight plan on PilotEdge
Remarks:
Altitude:
(Current/Filed)
35,000ft
Speed:
(Current/Filed)
442kts
Departed: 02-Dec-17 01:41 PM
Arrived: 02-Dec-17 04:28 PM
Distance/Time
Traveled:
1205nm/2:47
Distance/Time
To Go:
Arrived

Flight Plot

Page will automatically refresh every two minutes.

Flight plan parsing failed; only flown route is shown


Map Options




Map Legend


Flown Route
Filed Route
Departure Airport
Arrival Airport
Navaid (VOR, NDB)
Fix

Horizontal Profiles

Position Reports

Time Latitude Longitude Heading Altitude Ground
Speed
02-Dec-17 13:24 32.901777 -97.037407 352 615ft 0kts
02-Dec-17 13:25 32.901777 -97.037407 352 615ft 0kts
02-Dec-17 13:26 32.901777 -97.037406 352 615ft 0kts
02-Dec-17 13:27 32.901777 -97.037406 352 615ft 0kts
02-Dec-17 13:28 32.901777 -97.037406 352 615ft 0kts
02-Dec-17 13:29 32.901777 -97.037406 352 615ft 0kts
02-Dec-17 13:30 32.901777 -97.037406 352 615ft 0kts
02-Dec-17 13:31 32.901777 -97.037406 352 615ft 0kts
02-Dec-17 13:32 32.901777 -97.037406 352 615ft 0kts
02-Dec-17 13:33 32.901777 -97.037406 352 615ft 0kts
02-Dec-17 13:34 32.901392 -97.037350 5 615ft 2kts
02-Dec-17 13:35 32.901091 -97.037869 91 615ft 2kts
02-Dec-17 13:36 32.901089 -97.038053 89 615ft 0kts
02-Dec-17 13:37 32.901089 -97.037964 90 615ft 2kts
02-Dec-17 13:38 32.901088 -97.035979 89 615ft 8kts
02-Dec-17 13:39 32.901100 -97.034752 89 615ft 0kts
02-Dec-17 13:40 32.901100 -97.033806 90 615ft 10kts
02-Dec-17 13:41 32.901565 -97.031873 10 615ft 2kts
02-Dec-17 13:42 32.905652 -97.031890 359 615ft 23kts
02-Dec-17 13:43 32.912700 -97.031853 0 615ft 23kts
02-Dec-17 13:44 32.915232 -97.030497 100 615ft 10kts
02-Dec-17 13:45 32.914506 -97.029879 177 615ft 14kts
02-Dec-17 13:46 32.877660 -97.029659 180 1738ft 189kts
02-Dec-17 13:47 32.822088 -97.014669 158 4080ft 244kts
02-Dec-17 13:48 32.771259 -96.961804 111 6905ft 272kts
02-Dec-17 13:49 32.767151 -96.868604 88 9445ft 302kts
02-Dec-17 13:50 32.785337 -96.767154 73 11425ft 344kts
02-Dec-17 13:51 32.814924 -96.653484 73 13409ft 371kts
02-Dec-17 13:52 32.839073 -96.560002 72 15081ft 383kts
02-Dec-17 13:53 32.870544 -96.437573 71 17066ft 395kts
02-Dec-17 13:54 32.904167 -96.311845 67 18908ft 404kts
02-Dec-17 13:55 32.945175 -96.185757 67 20521ft 415kts
02-Dec-17 13:56 32.987157 -96.055906 67 21945ft 426kts
02-Dec-17 13:57 33.030083 -95.922593 66 23250ft 437kts
02-Dec-17 13:58 33.073986 -95.785820 66 24421ft 449kts
02-Dec-17 13:59 33.118801 -95.645997 66 25556ft 459kts
02-Dec-17 14:00 33.164601 -95.502419 66 26624ft 468kts
02-Dec-17 14:01 33.211044 -95.356130 66 27617ft 477kts
02-Dec-17 14:02 33.258127 -95.207108 66 28488ft 485kts
02-Dec-17 14:03 33.305823 -95.055408 66 29316ft 492kts
02-Dec-17 14:04 33.354113 -94.901034 66 30107ft 499kts
02-Dec-17 14:05 33.402822 -94.744547 66 30809ft 506kts
02-Dec-17 14:06 33.451811 -94.586315 66 31643ft 508kts
02-Dec-17 14:07 33.500552 -94.428077 66 32478ft 508kts
02-Dec-17 14:08 33.549160 -94.269438 67 33199ft 509kts
02-Dec-17 14:09 33.596702 -94.110327 67 33846ft 509kts
02-Dec-17 14:10 33.644147 -93.950437 67 34470ft 509kts
02-Dec-17 14:11 33.691403 -93.790356 67 35069ft 509kts
02-Dec-17 14:12 33.738435 -93.630160 67 35220ft 509kts
02-Dec-17 14:13 33.785281 -93.469722 67 35247ft 509kts
02-Dec-17 14:14 33.831788 -93.309555 68 35243ft 509kts
02-Dec-17 14:15 33.878117 -93.149113 68 35234ft 508kts
02-Dec-17 14:16 33.931502 -92.992686 62 35238ft 506kts
02-Dec-17 14:17 33.989483 -92.838516 62 35248ft 507kts
02-Dec-17 14:18 34.047436 -92.683744 62 35256ft 507kts
02-Dec-17 14:19 34.105114 -92.528997 62 35259ft 508kts
02-Dec-17 14:20 34.162755 -92.373608 60 35227ft 510kts
02-Dec-17 14:21 34.218457 -92.222728 60 35222ft 512kts
02-Dec-17 14:22 34.276372 -92.065105 60 35254ft 514kts
02-Dec-17 14:23 34.334127 -91.907153 60 35270ft 515kts
02-Dec-17 14:24 34.391758 -91.748766 60 35273ft 515kts
02-Dec-17 14:25 34.449239 -91.590012 60 35267ft 515kts
02-Dec-17 14:26 34.506456 -91.431201 60 35255ft 515kts
02-Dec-17 14:27 34.563287 -91.272670 61 35241ft 514kts
02-Dec-17 14:28 34.619912 -91.113939 61 35224ft 513kts
02-Dec-17 14:29 34.676066 -90.955720 61 35306ft 509kts
02-Dec-17 14:30 34.731831 -90.797839 61 35275ft 508kts
02-Dec-17 14:31 34.787154 -90.640446 61 35246ft 507kts
02-Dec-17 14:32 34.842293 -90.482740 61 35235ft 507kts
02-Dec-17 14:33 34.897201 -90.324915 62 35239ft 508kts
02-Dec-17 14:34 34.951790 -90.167209 62 35256ft 507kts
02-Dec-17 14:35 35.006445 -90.008519 62 35271ft 508kts
02-Dec-17 14:36 35.062570 -89.850998 60 35279ft 508kts
02-Dec-17 14:37 35.118959 -89.693451 60 35260ft 509kts
02-Dec-17 14:38 35.175344 -89.534970 60 35271ft 510kts
02-Dec-17 14:39 35.231565 -89.376137 60 35267ft 510kts
02-Dec-17 14:40 35.287459 -89.217428 61 35244ft 509kts
02-Dec-17 14:41 35.343236 -89.058249 61 35233ft 509kts
02-Dec-17 14:42 35.398670 -88.899231 61 35271ft 509kts
02-Dec-17 14:43 35.454038 -88.739585 61 35278ft 510kts
02-Dec-17 14:44 35.509344 -88.579283 61 35280ft 511kts
02-Dec-17 14:45 35.564289 -88.419194 61 35285ft 511kts
02-Dec-17 14:46 35.616290 -88.265208 61 35278ft 511kts
02-Dec-17 14:47 35.670267 -88.104555 61 35268ft 510kts
02-Dec-17 14:48 35.723009 -87.946779 61 35266ft 510kts
02-Dec-17 14:49 35.776803 -87.785001 61 35271ft 511kts
02-Dec-17 14:50 35.829481 -87.625714 60 35255ft 511kts
02-Dec-17 14:51 35.882896 -87.463841 61 35261ft 512kts
02-Dec-17 14:52 35.936203 -87.302118 62 35257ft 511kts
02-Dec-17 14:53 35.989418 -87.139739 62 35240ft 511kts
02-Dec-17 14:54 36.042377 -86.977265 62 35239ft 511kts
02-Dec-17 14:55 36.095101 -86.814616 62 35248ft 511kts
02-Dec-17 14:56 36.146879 -86.654178 60 35256ft 512kts
02-Dec-17 14:57 36.200016 -86.490537 60 35291ft 514kts
02-Dec-17 14:58 36.252760 -86.327029 61 35290ft 514kts
02-Dec-17 14:59 36.304809 -86.164761 61 35272ft 513kts
02-Dec-17 15:00 36.357063 -86.000964 61 35265ft 513kts
02-Dec-17 15:01 36.409186 -85.836643 61 35259ft 513kts
02-Dec-17 15:02 36.461144 -85.671917 61 35281ft 514kts
02-Dec-17 15:03 36.512878 -85.506951 61 35284ft 514kts
02-Dec-17 15:04 36.564255 -85.342168 62 35283ft 514kts
02-Dec-17 15:05 36.615266 -85.177611 62 35267ft 513kts
02-Dec-17 15:06 36.666315 -85.011988 62 35264ft 513kts
02-Dec-17 15:07 36.717128 -84.846156 62 35273ft 514kts
02-Dec-17 15:08 36.767839 -84.679682 62 35284ft 515kts
02-Dec-17 15:09 36.818288 -84.513091 63 35288ft 515kts
02-Dec-17 15:10 36.868296 -84.346934 64 35254ft 517kts
02-Dec-17 15:11 36.918224 -84.180060 64 35248ft 516kts
02-Dec-17 15:12 36.967990 -84.012721 64 35242ft 516kts
02-Dec-17 15:13 37.017458 -83.845367 64 35252ft 516kts
02-Dec-17 15:14 37.066914 -83.677031 64 35286ft 517kts
02-Dec-17 15:15 37.113690 -83.516863 65 35286ft 517kts
02-Dec-17 15:16 37.162486 -83.348755 65 35293ft 518kts
02-Dec-17 15:17 37.210937 -83.180797 65 35273ft 516kts
02-Dec-17 15:18 37.258659 -83.014362 65 35267ft 516kts
02-Dec-17 15:19 37.306287 -82.847202 65 35246ft 516kts
02-Dec-17 15:20 37.353252 -82.681330 64 35258ft 516kts
02-Dec-17 15:21 37.400798 -82.512365 64 35272ft 515kts
02-Dec-17 15:22 37.447365 -82.345838 65 35256ft 514kts
02-Dec-17 15:23 37.493595 -82.179461 65 35229ft 513kts
02-Dec-17 15:24 37.539076 -82.014770 65 35227ft 513kts
02-Dec-17 15:25 37.585113 -81.847014 65 35296ft 513kts
02-Dec-17 15:26 37.631349 -81.677437 65 35309ft 514kts
02-Dec-17 15:27 37.677223 -81.508179 65 35287ft 515kts
02-Dec-17 15:28 37.722474 -81.340028 66 35289ft 515kts
02-Dec-17 15:29 37.767119 -81.173033 66 35277ft 514kts
02-Dec-17 15:30 37.789207 -80.994048 82 35282ft 524kts
02-Dec-17 15:31 37.801188 -80.811654 81 35279ft 524kts
02-Dec-17 15:32 37.812824 -80.632198 81 35279ft 524kts
02-Dec-17 15:33 37.824117 -80.453852 82 35289ft 524kts
02-Dec-17 15:34 37.834997 -80.277681 82 35278ft 523kts
02-Dec-17 15:35 37.845702 -80.100005 82 35266ft 523kts
02-Dec-17 15:36 37.856257 -79.920326 83 35273ft 523kts
02-Dec-17 15:37 37.866529 -79.740612 84 35297ft 522kts
02-Dec-17 15:38 37.876467 -79.561921 84 35283ft 521kts
02-Dec-17 15:39 37.886150 -79.382918 83 35280ft 521kts
02-Dec-17 15:40 37.895248 -79.209897 84 35296ft 521kts
02-Dec-17 15:41 37.910213 -79.028154 78 35296ft 519kts
02-Dec-17 15:42 37.931993 -78.848368 78 35302ft 519kts
02-Dec-17 15:43 37.953554 -78.668172 78 35337ft 520kts
02-Dec-17 15:44 37.974947 -78.486996 78 35345ft 520kts
02-Dec-17 15:45 37.995475 -78.310777 79 35342ft 520kts
02-Dec-17 15:46 38.015072 -78.131058 83 35329ft 520kts
02-Dec-17 15:47 38.026571 -77.948633 83 35326ft 520kts
02-Dec-17 15:48 38.037837 -77.766181 83 35332ft 521kts
02-Dec-17 15:49 38.047028 -77.613764 83 35339ft 521kts
02-Dec-17 15:50 38.059584 -77.399994 83 35344ft 522kts
02-Dec-17 15:51 38.068150 -77.250114 84 35340ft 521kts
02-Dec-17 15:52 38.080028 -77.036519 84 35181ft 521kts
02-Dec-17 15:53 38.089852 -76.854303 84 35278ft 520kts
02-Dec-17 15:54 38.101083 -76.703100 71 35372ft 518kts
02-Dec-17 15:55 38.166340 -76.571007 40 35387ft 498kts
02-Dec-17 15:56 38.256977 -76.443785 40 35350ft 496kts
02-Dec-17 15:57 38.377215 -76.317775 28 35348ft 482kts
02-Dec-17 15:58 38.467004 -76.234652 28 35327ft 481kts
02-Dec-17 15:59 38.575105 -76.134220 28 35327ft 481kts
02-Dec-17 16:00 38.677734 -76.038519 28 35377ft 482kts
02-Dec-17 16:01 38.785360 -75.937884 28 35390ft 484kts
02-Dec-17 16:02 38.893518 -75.836387 28 35404ft 485kts
02-Dec-17 16:03 39.000696 -75.735280 28 33900ft 479kts
02-Dec-17 16:04 39.105893 -75.635596 29 31832ft 473kts
02-Dec-17 16:05 39.195852 -75.550065 30 30005ft 468kts
02-Dec-17 16:06 39.299400 -75.455890 27 28316ft 449kts
02-Dec-17 16:07 39.398558 -75.367781 28 25898ft 436kts
02-Dec-17 16:08 39.482217 -75.293141 28 24089ft 408kts
02-Dec-17 16:09 39.573792 -75.208728 30 22127ft 402kts
02-Dec-17 16:10 39.662004 -75.125834 30 20207ft 395kts
02-Dec-17 16:11 39.748542 -75.050264 27 18361ft 385kts
02-Dec-17 16:12 39.835838 -74.974975 28 16560ft 374kts
02-Dec-17 16:13 39.911441 -74.907182 30 15043ft 363kts
02-Dec-17 16:14 39.981288 -74.813018 44 13029ft 361kts
02-Dec-17 16:15 40.043250 -74.724193 44 11601ft 346kts
02-Dec-17 16:16 40.104951 -74.635459 44 10104ft 320kts
02-Dec-17 16:17 40.159138 -74.557376 44 9128ft 300kts
02-Dec-17 16:18 40.214272 -74.479943 40 8173ft 285kts
02-Dec-17 16:19 40.269536 -74.410294 43 7398ft 273kts
02-Dec-17 16:20 40.322181 -74.343743 43 6707ft 270kts
02-Dec-17 16:21 40.369251 -74.284105 44 6187ft 266kts
02-Dec-17 16:22 40.411557 -74.230385 44 5657ft 264kts
02-Dec-17 16:23 40.463141 -74.164748 44 5028ft 264kts
02-Dec-17 16:24 40.508974 -74.106288 45 4732ft 241kts
02-Dec-17 16:25 40.560667 -74.058434 33 4335ft 234kts
02-Dec-17 16:26 40.608466 -74.017880 33 3997ft 231kts
02-Dec-17 16:27 40.650165 -73.982453 34 3497ft 194kts
02-Dec-17 16:28 40.685565 -73.952309 34 2783ft 168kts
02-Dec-17 16:29 40.715904 -73.920879 65 2048ft 152kts
02-Dec-17 16:30 40.730551 -73.873581 71 1592ft 151kts
02-Dec-17 16:31 40.752368 -73.832372 3 650ft 153kts
02-Dec-17 16:32 40.776888 -73.867277 302 17ft 119kts
02-Dec-17 16:33 40.778408 -73.874325 126 16ft 13kts
02-Dec-17 16:34 40.778287 -73.874118 128 16ft 0kts
02-Dec-17 16:35 40.751202 -73.832563 7 673ft 152kts
02-Dec-17 16:36 40.755090 -73.832375 353 604ft 155kts

Navigation Log

Ident Type
Flight plan parsing failed, navigation log unavailable